sensor_id;sensor_type;location;lat;lon;timestamp;P1;durP1;ratioP1;P2;durP2;ratioP2
57319;SDS011;43158;51.026;18.190;2022-12-18T00:02:06;51.80;;;28.40;;
57319;SDS011;43158;51.026;18.190;2022-12-18T00:04:33;52.20;;;29.30;;
57319;SDS011;43158;51.026;18.190;2022-12-18T00:07:00;56.70;;;31.00;;
57319;SDS011;43158;51.026;18.190;2022-12-18T00:09:26;52.00;;;28.90;;
57319;SDS011;43158;51.026;18.190;2022-12-18T00:11:53;55.70;;;32.10;;
57319;SDS011;43158;51.026;18.190;2022-12-18T00:14:21;52.80;;;30.80;;
57319;SDS011;43158;51.026;18.190;2022-12-18T00:16:52;48.60;;;27.50;;
57319;SDS011;43158;51.026;18.190;2022-12-18T00:19:19;47.20;;;27.50;;
57319;SDS011;43158;51.026;18.190;2022-12-18T00:21:45;45.80;;;26.80;;
57319;SDS011;43158;51.026;18.190;2022-12-18T00:24:11;46.10;;;25.80;;
57319;SDS011;43158;51.026;18.190;2022-12-18T00:26:40;42.60;;;23.80;;
57319;SDS011;43158;51.026;18.190;2022-12-18T00:29:09;46.50;;;26.40;;
57319;SDS011;43158;51.026;18.190;2022-12-18T00:31:37;45.70;;;26.60;;
57319;SDS011;43158;51.026;18.190;2022-12-18T00:34:03;47.10;;;26.60;;
57319;SDS011;43158;51.026;18.190;2022-12-18T00:36:31;45.20;;;26.20;;
57319;SDS011;43158;51.026;18.190;2022-12-18T00:38:59;49.70;;;26.60;;
57319;SDS011;43158;51.026;18.190;2022-12-18T00:41:26;45.20;;;25.90;;
57319;SDS011;43158;51.026;18.190;2022-12-18T00:44:12;48.00;;;28.40;;
57319;SDS011;43158;51.026;18.190;2022-12-18T00:46:42;45.30;;;25.90;;
57319;SDS011;43158;51.026;18.190;2022-12-18T00:49:12;47.90;;;26.60;;
57319;SDS011;43158;51.026;18.190;2022-12-18T00:51:38;44.00;;;24.60;;
57319;SDS011;43158;51.026;18.190;2022-12-18T00:54:04;52.10;;;27.80;;
57319;SDS011;43158;51.026;18.190;2022-12-18T00:56:30;40.90;;;23.60;;
57319;SDS011;43158;51.026;18.190;2022-12-18T00:58:57;39.50;;;23.10;;
57319;SDS011;43158;51.026;18.190;2022-12-18T01:01:23;41.40;;;25.20;;
57319;SDS011;43158;51.026;18.190;2022-12-18T01:03:49;42.40;;;24.10;;
57319;SDS011;43158;51.026;18.190;2022-12-18T01:06:15;44.10;;;26.90;;
57319;SDS011;43158;51.026;18.190;2022-12-18T01:08:41;43.90;;;22.40;;
57319;SDS011;43158;51.026;18.190;2022-12-18T01:11:08;45.40;;;26.80;;
57319;SDS011;43158;51.026;18.190;2022-12-18T01:13:36;40.30;;;23.10;;
57319;SDS011;43158;51.026;18.190;2022-12-18T01:16:02;43.60;;;24.20;;
57319;SDS011;43158;51.026;18.190;2022-12-18T01:18:27;42.60;;;21.60;;
57319;SDS011;43158;51.026;18.190;2022-12-18T01:21:05;51.20;;;28.10;;
57319;SDS011;43158;51.026;18.190;2022-12-18T01:23:34;46.00;;;26.00;;
57319;SDS011;43158;51.026;18.190;2022-12-18T01:26:04;49.10;;;27.30;;
57319;SDS011;43158;51.026;18.190;2022-12-18T01:28:32;36.60;;;22.50;;
57319;SDS011;43158;51.026;18.190;2022-12-18T01:31:08;48.40;;;27.70;;
57319;SDS011;43158;51.026;18.190;2022-12-18T01:33:45;48.50;;;26.10;;
57319;SDS011;43158;51.026;18.190;2022-12-18T01:36:15;44.20;;;23.50;;
57319;SDS011;43158;51.026;18.190;2022-12-18T01:38:42;48.30;;;25.10;;
57319;SDS011;43158;51.026;18.190;2022-12-18T01:41:09;46.90;;;26.00;;
57319;SDS011;43158;51.026;18.190;2022-12-18T01:43:53;47.20;;;25.30;;
57319;SDS011;43158;51.026;18.190;2022-12-18T01:46:21;49.30;;;23.90;;
57319;SDS011;43158;51.026;18.190;2022-12-18T01:51:26;43.90;;;20.70;;
57319;SDS011;43158;51.026;18.190;2022-12-18T01:53:52;43.30;;;22.70;;
57319;SDS011;43158;51.026;18.190;2022-12-18T01:56:21;43.70;;;23.40;;
57319;SDS011;43158;51.026;18.190;2022-12-18T01:58:55;43.00;;;22.20;;
57319;SDS011;43158;51.026;18.190;2022-12-18T02:01:31;47.70;;;24.40;;
57319;SDS011;43158;51.026;18.190;2022-12-18T02:04:16;39.10;;;22.40;;
57319;SDS011;43158;51.026;18.190;2022-12-18T02:12:25;40.70;;;21.50;;
57319;SDS011;43158;51.026;18.190;2022-12-18T02:17:45;44.10;;;22.80;;
57319;SDS011;43158;51.026;18.190;2022-12-18T02:23:06;47.40;;;22.70;;
57319;SDS011;43158;51.026;18.190;2022-12-18T02:26:02;38.70;;;21.50;;
57319;SDS011;43158;51.026;18.190;2022-12-18T02:28:49;40.10;;;22.10;;
57319;SDS011;43158;51.026;18.190;2022-12-18T02:31:21;37.20;;;20.20;;
57319;SDS011;43158;51.026;18.190;2022-12-18T02:33:52;39.00;;;22.80;;
57319;SDS011;43158;51.026;18.190;2022-12-18T02:36:20;43.20;;;24.00;;
57319;SDS011;43158;51.026;18.190;2022-12-18T02:38:46;38.50;;;23.00;;
57319;SDS011;43158;51.026;18.190;2022-12-18T02:41:13;40.90;;;20.70;;
57319;SDS011;43158;51.026;18.190;2022-12-18T02:43:42;47.90;;;24.50;;
57319;SDS011;43158;51.026;18.190;2022-12-18T02:46:26;44.90;;;23.20;;
57319;SDS011;43158;51.026;18.190;2022-12-18T02:54:49;43.90;;;22.20;;
57319;SDS011;43158;51.026;18.190;2022-12-18T02:57:24;45.20;;;24.60;;
57319;SDS011;43158;51.026;18.190;2022-12-18T03:08:34;48.40;;;24.50;;
57319;SDS011;43158;51.026;18.190;2022-12-18T03:11:04;44.30;;;23.60;;
57319;SDS011;43158;51.026;18.190;2022-12-18T03:13:54;39.70;;;22.40;;
57319;SDS011;43158;51.026;18.190;2022-12-18T03:16:25;44.40;;;24.70;;
57319;SDS011;43158;51.026;18.190;2022-12-18T03:19:11;48.70;;;25.10;;
57319;SDS011;43158;51.026;18.190;2022-12-18T03:21:49;42.10;;;21.30;;
57319;SDS011;43158;51.026;18.190;2022-12-18T03:24:20;37.70;;;19.60;;
57319;SDS011;43158;51.026;18.190;2022-12-18T03:26:49;44.80;;;22.60;;
57319;SDS011;43158;51.026;18.190;2022-12-18T03:29:22;48.10;;;21.60;;
57319;SDS011;43158;51.026;18.190;2022-12-18T03:31:55;42.90;;;23.80;;
57319;SDS011;43158;51.026;18.190;2022-12-18T03:34:29;47.50;;;24.40;;
57319;SDS011;43158;51.026;18.190;2022-12-18T03:36:56;40.50;;;23.50;;
57319;SDS011;43158;51.026;18.190;2022-12-18T03:39:23;50.60;;;27.80;;
57319;SDS011;43158;51.026;18.190;2022-12-18T03:44:29;40.00;;;21.00;;
57319;SDS011;43158;51.026;18.190;2022-12-18T03:49:41;30.20;;;17.20;;
57319;SDS011;43158;51.026;18.190;2022-12-18T03:54:59;43.80;;;22.40;;
57319;SDS011;43158;51.026;18.190;2022-12-18T03:57:28;43.10;;;23.40;;
57319;SDS011;43158;51.026;18.190;2022-12-18T03:59:56;29.40;;;16.40;;
57319;SDS011;43158;51.026;18.190;2022-12-18T04:02:29;31.00;;;14.90;;
57319;SDS011;43158;51.026;18.190;2022-12-18T04:04:57;36.80;;;19.20;;
57319;SDS011;43158;51.026;18.190;2022-12-18T04:07:24;42.40;;;19.10;;
57319;SDS011;43158;51.026;18.190;2022-12-18T04:09:51;40.60;;;21.00;;
57319;SDS011;43158;51.026;18.190;2022-12-18T04:12:20;35.20;;;16.00;;
57319;SDS011;43158;51.026;18.190;2022-12-18T04:14:46;35.00;;;18.60;;
57319;SDS011;43158;51.026;18.190;2022-12-18T04:17:11;34.60;;;18.30;;
57319;SDS011;43158;51.026;18.190;2022-12-18T04:19:38;37.90;;;19.30;;
57319;SDS011;43158;51.026;18.190;2022-12-18T04:22:06;32.80;;;18.50;;
57319;SDS011;43158;51.026;18.190;2022-12-18T04:24:32;32.40;;;19.10;;
57319;SDS011;43158;51.026;18.190;2022-12-18T04:26:58;37.70;;;20.30;;
57319;SDS011;43158;51.026;18.190;2022-12-18T04:29:24;37.90;;;19.40;;
57319;SDS011;43158;51.026;18.190;2022-12-18T04:31:50;36.40;;;20.90;;
57319;SDS011;43158;51.026;18.190;2022-12-18T04:34:16;34.10;;;19.30;;
57319;SDS011;43158;51.026;18.190;2022-12-18T04:36:42;35.10;;;19.90;;
57319;SDS011;43158;51.026;18.190;2022-12-18T04:39:08;41.30;;;19.10;;
57319;SDS011;43158;51.026;18.190;2022-12-18T04:41:34;35.90;;;19.30;;
57319;SDS011;43158;51.026;18.190;2022-12-18T04:44:00;36.20;;;20.20;;
57319;SDS011;43158;51.026;18.190;2022-12-18T04:46:25;34.40;;;20.30;;
57319;SDS011;43158;51.026;18.190;2022-12-18T04:48:52;34.90;;;20.50;;
57319;SDS011;43158;51.026;18.190;2022-12-18T04:51:21;38.80;;;21.50;;
57319;SDS011;43158;51.026;18.190;2022-12-18T04:53:47;42.40;;;22.20;;
57319;SDS011;43158;51.026;18.190;2022-12-18T04:56:14;30.00;;;17.30;;
57319;SDS011;43158;51.026;18.190;2022-12-18T04:58:42;41.70;;;23.00;;
57319;SDS011;43158;51.026;18.190;2022-12-18T05:01:09;38.70;;;21.10;;
57319;SDS011;43158;51.026;18.190;2022-12-18T05:03:36;31.20;;;17.40;;
57319;SDS011;43158;51.026;18.190;2022-12-18T05:06:02;40.50;;;19.80;;
57319;SDS011;43158;51.026;18.190;2022-12-18T05:08:32;40.40;;;19.00;;
57319;SDS011;43158;51.026;18.190;2022-12-18T05:11:07;36.30;;;21.40;;
57319;SDS011;43158;51.026;18.190;2022-12-18T05:13:34;33.40;;;19.50;;
57319;SDS011;43158;51.026;18.190;2022-12-18T05:16:01;28.60;;;15.10;;
57319;SDS011;43158;51.026;18.190;2022-12-18T05:18:27;33.10;;;16.30;;
57319;SDS011;43158;51.026;18.190;2022-12-18T05:20:53;40.70;;;22.70;;
57319;SDS011;43158;51.026;18.190;2022-12-18T05:23:21;42.60;;;20.10;;
57319;SDS011;43158;51.026;18.190;2022-12-18T05:25:51;41.70;;;20.40;;
57319;SDS011;43158;51.026;18.190;2022-12-18T05:28:22;38.60;;;20.40;;
57319;SDS011;43158;51.026;18.190;2022-12-18T05:30:50;40.00;;;20.40;;
57319;SDS011;43158;51.026;18.190;2022-12-18T05:33:20;37.80;;;21.20;;
57319;SDS011;43158;51.026;18.190;2022-12-18T05:35:50;42.50;;;23.00;;
57319;SDS011;43158;51.026;18.190;2022-12-18T05:38:21;26.30;;;17.50;;
57319;SDS011;43158;51.026;18.190;2022-12-18T05:40:48;34.70;;;20.90;;
57319;SDS011;43158;51.026;18.190;2022-12-18T05:43:15;44.80;;;21.20;;
57319;SDS011;43158;51.026;18.190;2022-12-18T05:45:41;27.20;;;14.40;;
57319;SDS011;43158;51.026;18.190;2022-12-18T05:48:08;36.00;;;18.10;;
57319;SDS011;43158;51.026;18.190;2022-12-18T05:50:38;41.30;;;21.40;;
57319;SDS011;43158;51.026;18.190;2022-12-18T05:53:06;40.40;;;22.20;;
57319;SDS011;43158;51.026;18.190;2022-12-18T05:55:35;36.50;;;19.00;;
57319;SDS011;43158;51.026;18.190;2022-12-18T05:58:03;38.60;;;19.10;;
57319;SDS011;43158;51.026;18.190;2022-12-18T06:00:29;37.20;;;20.20;;
57319;SDS011;43158;51.026;18.190;2022-12-18T06:02:56;41.00;;;21.50;;
57319;SDS011;43158;51.026;18.190;2022-12-18T06:05:22;33.80;;;18.30;;
57319;SDS011;43158;51.026;18.190;2022-12-18T06:07:48;46.50;;;20.60;;
57319;SDS011;43158;51.026;18.190;2022-12-18T06:10:14;35.50;;;20.30;;
57319;SDS011;43158;51.026;18.190;2022-12-18T06:12:41;35.90;;;20.20;;
57319;SDS011;43158;51.026;18.190;2022-12-18T06:15:07;31.30;;;15.60;;
57319;SDS011;43158;51.026;18.190;2022-12-18T06:17:34;38.80;;;20.10;;
57319;SDS011;43158;51.026;18.190;2022-12-18T06:20:00;39.00;;;18.10;;
57319;SDS011;43158;51.026;18.190;2022-12-18T06:22:26;39.30;;;20.00;;
57319;SDS011;43158;51.026;18.190;2022-12-18T06:24:52;37.30;;;20.80;;
57319;SDS011;43158;51.026;18.190;2022-12-18T06:27:18;37.60;;;20.80;;
57319;SDS011;43158;51.026;18.190;2022-12-18T06:29:44;38.40;;;17.80;;
57319;SDS011;43158;51.026;18.190;2022-12-18T06:32:13;34.90;;;20.70;;
57319;SDS011;43158;51.026;18.190;2022-12-18T06:34:39;35.30;;;18.90;;
57319;SDS011;43158;51.026;18.190;2022-12-18T06:37:05;28.40;;;14.70;;
57319;SDS011;43158;51.026;18.190;2022-12-18T06:39:30;34.30;;;19.30;;
57319;SDS011;43158;51.026;18.190;2022-12-18T06:41:56;40.60;;;18.50;;
57319;SDS011;43158;51.026;18.190;2022-12-18T06:44:42;39.40;;;19.30;;
57319;SDS011;43158;51.026;18.190;2022-12-18T06:47:09;41.50;;;21.20;;
57319;SDS011;43158;51.026;18.190;2022-12-18T06:49:35;30.90;;;16.50;;
57319;SDS011;43158;51.026;18.190;2022-12-18T06:52:01;41.00;;;21.20;;
57319;SDS011;43158;51.026;18.190;2022-12-18T06:54:27;38.00;;;22.10;;
57319;SDS011;43158;51.026;18.190;2022-12-18T06:56:52;39.20;;;20.90;;
57319;SDS011;43158;51.026;18.190;2022-12-18T06:59:21;35.70;;;19.20;;
57319;SDS011;43158;51.026;18.190;2022-12-18T07:01:47;37.30;;;20.00;;
57319;SDS011;43158;51.026;18.190;2022-12-18T07:04:13;44.40;;;22.40;;
57319;SDS011;43158;51.026;18.190;2022-12-18T07:06:39;39.20;;;21.40;;
57319;SDS011;43158;51.026;18.190;2022-12-18T07:09:04;40.50;;;20.90;;
57319;SDS011;43158;51.026;18.190;2022-12-18T07:11:32;39.00;;;21.50;;
57319;SDS011;43158;51.026;18.190;2022-12-18T07:13:58;33.10;;;16.50;;
57319;SDS011;43158;51.026;18.190;2022-12-18T07:16:24;29.00;;;17.50;;
57319;SDS011;43158;51.026;18.190;2022-12-18T07:18:50;45.80;;;24.90;;
57319;SDS011;43158;51.026;18.190;2022-12-18T07:21:18;35.60;;;17.80;;
57319;SDS011;43158;51.026;18.190;2022-12-18T07:23:44;35.00;;;19.00;;
57319;SDS011;43158;51.026;18.190;2022-12-18T07:26:14;35.60;;;18.60;;
57319;SDS011;43158;51.026;18.190;2022-12-18T07:28:41;48.70;;;22.60;;
57319;SDS011;43158;51.026;18.190;2022-12-18T07:31:09;44.10;;;22.40;;
57319;SDS011;43158;51.026;18.190;2022-12-18T07:33:36;40.60;;;19.90;;
57319;SDS011;43158;51.026;18.190;2022-12-18T07:36:04;39.50;;;22.30;;
57319;SDS011;43158;51.026;18.190;2022-12-18T07:38:32;36.90;;;21.50;;
57319;SDS011;43158;51.026;18.190;2022-12-18T07:41:02;31.90;;;18.40;;
57319;SDS011;43158;51.026;18.190;2022-12-18T07:43:46;43.50;;;24.80;;
57319;SDS011;43158;51.026;18.190;2022-12-18T07:46:12;39.10;;;22.70;;
57319;SDS011;43158;51.026;18.190;2022-12-18T07:48:40;34.90;;;18.80;;
57319;SDS011;43158;51.026;18.190;2022-12-18T07:51:07;44.40;;;25.20;;
57319;SDS011;43158;51.026;18.190;2022-12-18T07:53:34;41.70;;;20.30;;
57319;SDS011;43158;51.026;18.190;2022-12-18T07:56:05;42.20;;;21.50;;
57319;SDS011;43158;51.026;18.190;2022-12-18T07:58:37;46.30;;;26.60;;
57319;SDS011;43158;51.026;18.190;2022-12-18T08:01:04;45.30;;;22.50;;
57319;SDS011;43158;51.026;18.190;2022-12-18T08:03:38;46.40;;;27.50;;
57319;SDS011;43158;51.026;18.190;2022-12-18T08:06:06;38.40;;;20.90;;
57319;SDS011;43158;51.026;18.190;2022-12-18T08:08:33;46.40;;;26.80;;
57319;SDS011;43158;51.026;18.190;2022-12-18T08:11:00;48.50;;;27.60;;
57319;SDS011;43158;51.026;18.190;2022-12-18T08:13:27;46.20;;;24.00;;
57319;SDS011;43158;51.026;18.190;2022-12-18T08:18:24;43.00;;;24.50;;
57319;SDS011;43158;51.026;18.190;2022-12-18T08:20:50;41.50;;;24.60;;
57319;SDS011;43158;51.026;18.190;2022-12-18T08:23:17;44.20;;;22.40;;
57319;SDS011;43158;51.026;18.190;2022-12-18T08:25:45;47.40;;;25.40;;
57319;SDS011;43158;51.026;18.190;2022-12-18T08:28:12;34.10;;;20.30;;
57319;SDS011;43158;51.026;18.190;2022-12-18T08:30:38;52.40;;;28.80;;
57319;SDS011;43158;51.026;18.190;2022-12-18T08:33:04;44.60;;;25.20;;
57319;SDS011;43158;51.026;18.190;2022-12-18T08:35:34;50.40;;;27.50;;
57319;SDS011;43158;51.026;18.190;2022-12-18T08:38:02;45.40;;;26.40;;
57319;SDS011;43158;51.026;18.190;2022-12-18T08:40:29;53.60;;;27.10;;
57319;SDS011;43158;51.026;18.190;2022-12-18T08:42:56;50.00;;;25.40;;
57319;SDS011;43158;51.026;18.190;2022-12-18T08:45:40;44.30;;;25.40;;
57319;SDS011;43158;51.026;18.190;2022-12-18T08:48:07;43.20;;;25.40;;
57319;SDS011;43158;51.026;18.190;2022-12-18T08:50:35;45.90;;;22.90;;
57319;SDS011;43158;51.026;18.190;2022-12-18T08:53:01;46.20;;;23.30;;
57319;SDS011;43158;51.026;18.190;2022-12-18T08:55:27;49.50;;;27.20;;
57319;SDS011;43158;51.026;18.190;2022-12-18T08:57:53;44.40;;;23.40;;
57319;SDS011;43158;51.026;18.190;2022-12-18T09:00:20;42.50;;;23.40;;
57319;SDS011;43158;51.026;18.190;2022-12-18T09:02:46;43.00;;;26.20;;
57319;SDS011;43158;51.026;18.190;2022-12-18T09:05:12;46.90;;;27.40;;
57319;SDS011;43158;51.026;18.190;2022-12-18T09:07:38;46.50;;;25.90;;
57319;SDS011;43158;51.026;18.190;2022-12-18T09:10:05;50.70;;;28.30;;
57319;SDS011;43158;51.026;18.190;2022-12-18T09:12:31;47.10;;;27.60;;
57319;SDS011;43158;51.026;18.190;2022-12-18T09:15:00;38.80;;;21.50;;
57319;SDS011;43158;51.026;18.190;2022-12-18T09:17:27;41.90;;;26.90;;
57319;SDS011;43158;51.026;18.190;2022-12-18T09:19:53;31.90;;;21.20;;
57319;SDS011;43158;51.026;18.190;2022-12-18T09:22:19;44.40;;;22.70;;
57319;SDS011;43158;51.026;18.190;2022-12-18T09:24:46;52.00;;;28.30;;
57319;SDS011;43158;51.026;18.190;2022-12-18T09:27:12;49.50;;;28.20;;
57319;SDS011;43158;51.026;18.190;2022-12-18T09:29:38;43.10;;;27.20;;
57319;SDS011;43158;51.026;18.190;2022-12-18T09:32:05;50.30;;;25.50;;
57319;SDS011;43158;51.026;18.190;2022-12-18T09:34:31;45.10;;;26.00;;
57319;SDS011;43158;51.026;18.190;2022-12-18T09:36:58;40.50;;;23.70;;
57319;SDS011;43158;51.026;18.190;2022-12-18T09:39:24;46.40;;;26.90;;
57319;SDS011;43158;51.026;18.190;2022-12-18T09:41:51;43.70;;;25.10;;
57319;SDS011;43158;51.026;18.190;2022-12-18T09:44:23;44.40;;;26.10;;
57319;SDS011;43158;51.026;18.190;2022-12-18T09:50:05;52.20;;;28.50;;
57319;SDS011;43158;51.026;18.190;2022-12-18T09:52:49;49.30;;;27.30;;
57319;SDS011;43158;51.026;18.190;2022-12-18T10:00:52;47.20;;;29.10;;
57319;SDS011;43158;51.026;18.190;2022-12-18T10:03:19;45.20;;;25.90;;
57319;SDS011;43158;51.026;18.190;2022-12-18T10:08:39;35.50;;;18.20;;
57319;SDS011;43158;51.026;18.190;2022-12-18T10:11:20;45.50;;;26.10;;
57319;SDS011;43158;51.026;18.190;2022-12-18T10:14:41;42.70;;;25.00;;
57319;SDS011;43158;51.026;18.190;2022-12-18T10:28:35;49.60;;;26.90;;
57319;SDS011;43158;51.026;18.190;2022-12-18T10:31:04;45.70;;;25.50;;
57319;SDS011;43158;51.026;18.190;2022-12-18T10:33:32;39.10;;;23.40;;
57319;SDS011;43158;51.026;18.190;2022-12-18T10:35:59;41.00;;;21.00;;
57319;SDS011;43158;51.026;18.190;2022-12-18T10:38:26;28.30;;;15.40;;
57319;SDS011;43158;51.026;18.190;2022-12-18T10:41:01;38.90;;;21.20;;
57319;SDS011;43158;51.026;18.190;2022-12-18T10:46:44;25.60;;;13.00;;
57319;SDS011;43158;51.026;18.190;2022-12-18T10:49:22;33.50;;;24.00;;
57319;SDS011;43158;51.026;18.190;2022-12-18T10:51:51;36.60;;;20.00;;
57319;SDS011;43158;51.026;18.190;2022-12-18T10:54:21;26.80;;;15.20;;
57319;SDS011;43158;51.026;18.190;2022-12-18T10:56:48;39.50;;;23.70;;
57319;SDS011;43158;51.026;18.190;2022-12-18T10:59:15;40.30;;;24.10;;
57319;SDS011;43158;51.026;18.190;2022-12-18T11:01:50;39.90;;;24.60;;
57319;SDS011;43158;51.026;18.190;2022-12-18T11:04:22;36.60;;;22.90;;
57319;SDS011;43158;51.026;18.190;2022-12-18T11:07:00;40.30;;;24.70;;
57319;SDS011;43158;51.026;18.190;2022-12-18T11:09:34;31.30;;;16.50;;
57319;SDS011;43158;51.026;18.190;2022-12-18T11:12:02;41.30;;;20.90;;
57319;SDS011;43158;51.026;18.190;2022-12-18T11:17:20;36.30;;;18.50;;
57319;SDS011;43158;51.026;18.190;2022-12-18T11:20:01;37.10;;;22.00;;
57319;SDS011;43158;51.026;18.190;2022-12-18T11:22:33;38.30;;;25.70;;
57319;SDS011;43158;51.026;18.190;2022-12-18T11:27:49;38.00;;;23.30;;
57319;SDS011;43158;51.026;18.190;2022-12-18T11:30:36;40.60;;;22.20;;
57319;SDS011;43158;51.026;18.190;2022-12-18T11:40:56;47.20;;;24.30;;
57319;SDS011;43158;51.026;18.190;2022-12-18T11:43:27;42.20;;;20.10;;
57319;SDS011;43158;51.026;18.190;2022-12-18T11:46:08;34.60;;;18.80;;
57319;SDS011;43158;51.026;18.190;2022-12-18T11:49:20;41.70;;;23.40;;
57319;SDS011;43158;51.026;18.190;2022-12-18T11:51:53;50.80;;;28.40;;
57319;SDS011;43158;51.026;18.190;2022-12-18T11:54:25;31.10;;;18.30;;
57319;SDS011;43158;51.026;18.190;2022-12-18T12:07:40;43.50;;;25.30;;
57319;SDS011;43158;51.026;18.190;2022-12-18T12:13:25;45.50;;;26.80;;
57319;SDS011;43158;51.026;18.190;2022-12-18T12:21:28;45.20;;;23.50;;
57319;SDS011;43158;51.026;18.190;2022-12-18T12:24:16;52.50;;;29.20;;
57319;SDS011;43158;51.026;18.190;2022-12-18T12:34:44;42.40;;;23.30;;
57319;SDS011;43158;51.026;18.190;2022-12-18T12:37:25;53.20;;;28.00;;
57319;SDS011;43158;51.026;18.190;2022-12-18T12:40:05;52.40;;;25.20;;
57319;SDS011;43158;51.026;18.190;2022-12-18T12:42:33;52.30;;;28.00;;
57319;SDS011;43158;51.026;18.190;2022-12-18T12:45:26;58.70;;;29.10;;
57319;SDS011;43158;51.026;18.190;2022-12-18T12:47:57;57.10;;;29.20;;
57319;SDS011;43158;51.026;18.190;2022-12-18T12:50:23;54.20;;;30.50;;
57319;SDS011;43158;51.026;18.190;2022-12-18T12:52:54;61.20;;;32.80;;
57319;SDS011;43158;51.026;18.190;2022-12-18T12:55:25;58.20;;;27.00;;
57319;SDS011;43158;51.026;18.190;2022-12-18T13:00:27;62.00;;;29.20;;
57319;SDS011;43158;51.026;18.190;2022-12-18T13:03:06;64.10;;;31.50;;
57319;SDS011;43158;51.026;18.190;2022-12-18T13:08:25;75.70;;;39.70;;
57319;SDS011;43158;51.026;18.190;2022-12-18T13:11:02;63.00;;;32.70;;
57319;SDS011;43158;51.026;18.190;2022-12-18T13:13:50;65.30;;;30.00;;
57319;SDS011;43158;51.026;18.190;2022-12-18T13:16:21;62.00;;;31.30;;
57319;SDS011;43158;51.026;18.190;2022-12-18T13:18:49;72.20;;;33.20;;
57319;SDS011;43158;51.026;18.190;2022-12-18T13:23:51;43.60;;;24.00;;
57319;SDS011;43158;51.026;18.190;2022-12-18T13:31:12;65.80;;;33.30;;
57319;SDS011;43158;51.026;18.190;2022-12-18T13:33:40;71.00;;;35.60;;
57319;SDS011;43158;51.026;18.190;2022-12-18T13:36:25;72.20;;;36.40;;
57319;SDS011;43158;51.026;18.190;2022-12-18T13:41:37;67.60;;;33.80;;
57319;SDS011;43158;51.026;18.190;2022-12-18T13:44:25;77.00;;;37.90;;
57319;SDS011;43158;51.026;18.190;2022-12-18T13:47:31;32.70;;;18.10;;
57319;SDS011;43158;51.026;18.190;2022-12-18T13:49:59;46.90;;;24.10;;
57319;SDS011;43158;51.026;18.190;2022-12-18T13:52:33;55.80;;;27.10;;
57319;SDS011;43158;51.026;18.190;2022-12-18T13:55:02;61.20;;;30.40;;
57319;SDS011;43158;51.026;18.190;2022-12-18T13:57:33;60.90;;;26.70;;
57319;SDS011;43158;51.026;18.190;2022-12-18T14:02:54;57.50;;;29.60;;
57319;SDS011;43158;51.026;18.190;2022-12-18T14:05:31;57.30;;;26.60;;
57319;SDS011;43158;51.026;18.190;2022-12-18T14:08:00;60.10;;;24.40;;
57319;SDS011;43158;51.026;18.190;2022-12-18T14:10:28;51.30;;;24.30;;
57319;SDS011;43158;51.026;18.190;2022-12-18T14:13:05;54.70;;;27.80;;
57319;SDS011;43158;51.026;18.190;2022-12-18T14:15:33;48.40;;;24.70;;
57319;SDS011;43158;51.026;18.190;2022-12-18T14:18:25;53.00;;;23.50;;
57319;SDS011;43158;51.026;18.190;2022-12-18T14:20:53;55.70;;;28.00;;
57319;SDS011;43158;51.026;18.190;2022-12-18T14:23:28;52.50;;;26.50;;
57319;SDS011;43158;51.026;18.190;2022-12-18T14:26:01;57.00;;;27.00;;
57319;SDS011;43158;51.026;18.190;2022-12-18T14:28:28;46.00;;;25.50;;
57319;SDS011;43158;51.026;18.190;2022-12-18T14:30:54;57.00;;;27.00;;
57319;SDS011;43158;51.026;18.190;2022-12-18T14:33:22;51.20;;;27.60;;
57319;SDS011;43158;51.026;18.190;2022-12-18T14:38:20;52.40;;;27.50;;
57319;SDS011;43158;51.026;18.190;2022-12-18T14:41:17;49.70;;;26.80;;
57319;SDS011;43158;51.026;18.190;2022-12-18T14:43:46;57.30;;;28.40;;
57319;SDS011;43158;51.026;18.190;2022-12-18T14:49:01;59.00;;;32.90;;
57319;SDS011;43158;51.026;18.190;2022-12-18T14:51:31;47.50;;;28.60;;
57319;SDS011;43158;51.026;18.190;2022-12-18T14:56:27;62.20;;;34.20;;
57319;SDS011;43158;51.026;18.190;2022-12-18T14:58:58;56.10;;;29.10;;
57319;SDS011;43158;51.026;18.190;2022-12-18T15:01:38;56.10;;;27.80;;
57319;SDS011;43158;51.026;18.190;2022-12-18T15:04:32;75.50;;;38.90;;
57319;SDS011;43158;51.026;18.190;2022-12-18T15:07:07;148.60;;;81.10;;
57319;SDS011;43158;51.026;18.190;2022-12-18T15:09:37;170.00;;;97.70;;
57319;SDS011;43158;51.026;18.190;2022-12-18T15:12:04;102.90;;;63.30;;
57319;SDS011;43158;51.026;18.190;2022-12-18T15:17:05;137.90;;;78.80;;
57319;SDS011;43158;51.026;18.190;2022-12-18T15:19:39;388.40;;;204.70;;
57319;SDS011;43158;51.026;18.190;2022-12-18T15:24:54;227.10;;;116.70;;
57319;SDS011;43158;51.026;18.190;2022-12-18T15:30:39;321.50;;;170.10;;
57319;SDS011;43158;51.026;18.190;2022-12-18T15:32:49;304.50;;;171.20;;
57319;SDS011;43158;51.026;18.190;2022-12-18T15:37:44;281.90;;;163.60;;
57319;SDS011;43158;51.026;18.190;2022-12-18T15:40:14;106.50;;;61.30;;
57319;SDS011;43158;51.026;18.190;2022-12-18T15:42:45;107.30;;;65.10;;
57319;SDS011;43158;51.026;18.190;2022-12-18T15:45:31;176.70;;;111.20;;
57319;SDS011;43158;51.026;18.190;2022-12-18T15:47:57;104.20;;;59.60;;
57319;SDS011;43158;51.026;18.190;2022-12-18T15:50:26;107.60;;;62.80;;
57319;SDS011;43158;51.026;18.190;2022-12-18T15:52:53;108.00;;;55.00;;
57319;SDS011;43158;51.026;18.190;2022-12-18T15:55:22;105.20;;;54.80;;
57319;SDS011;43158;51.026;18.190;2022-12-18T15:58:08;141.90;;;94.30;;
57319;SDS011;43158;51.026;18.190;2022-12-18T16:00:35;140.40;;;85.70;;
57319;SDS011;43158;51.026;18.190;2022-12-18T16:03:04;82.10;;;42.80;;
57319;SDS011;43158;51.026;18.190;2022-12-18T16:05:31;88.00;;;44.40;;
57319;SDS011;43158;51.026;18.190;2022-12-18T16:07:57;116.50;;;66.70;;
57319;SDS011;43158;51.026;18.190;2022-12-18T16:10:24;117.30;;;66.80;;
57319;SDS011;43158;51.026;18.190;2022-12-18T16:12:56;160.80;;;93.60;;
57319;SDS011;43158;51.026;18.190;2022-12-18T16:15:24;117.50;;;58.90;;
57319;SDS011;43158;51.026;18.190;2022-12-18T16:17:51;113.70;;;57.40;;
57319;SDS011;43158;51.026;18.190;2022-12-18T16:20:19;113.80;;;56.30;;
57319;SDS011;43158;51.026;18.190;2022-12-18T16:22:46;91.50;;;48.10;;
57319;SDS011;43158;51.026;18.190;2022-12-18T16:25:18;99.50;;;53.90;;
57319;SDS011;43158;51.026;18.190;2022-12-18T16:27:50;175.20;;;94.70;;
57319;SDS011;43158;51.026;18.190;2022-12-18T16:30:19;220.30;;;135.40;;
57319;SDS011;43158;51.026;18.190;2022-12-18T16:35:13;224.90;;;126.00;;
57319;SDS011;43158;51.026;18.190;2022-12-18T16:37:40;108.10;;;59.00;;
57319;SDS011;43158;51.026;18.190;2022-12-18T16:40:10;122.90;;;60.30;;
57319;SDS011;43158;51.026;18.190;2022-12-18T16:42:39;115.90;;;60.90;;
57319;SDS011;43158;51.026;18.190;2022-12-18T16:45:23;78.70;;;40.60;;
57319;SDS011;43158;51.026;18.190;2022-12-18T16:47:59;71.50;;;39.80;;
57319;SDS011;43158;51.026;18.190;2022-12-18T16:50:25;68.00;;;36.10;;
57319;SDS011;43158;51.026;18.190;2022-12-18T16:52:51;221.70;;;122.30;;